sensor_id;sensor_type;location;lat;lon;timestamp;temperature;humidity
5392;DHT22;2719;53.624;9.786;2022-12-29T00:00:09;8.50;99.90
5392;DHT22;2719;53.624;9.786;2022-12-29T00:02:37;8.50;99.90
5392;DHT22;2719;53.624;9.786;2022-12-29T00:05:05;8.50;99.90
5392;DHT22;2719;53.624;9.786;2022-12-29T00:07:32;8.60;99.90
5392;DHT22;2719;53.624;9.786;2022-12-29T00:09:59;8.50;99.90
5392;DHT22;2719;53.624;9.786;2022-12-29T00:12:25;8.60;99.90
5392;DHT22;2719;53.624;9.786;2022-12-29T00:15:13;8.60;99.90
5392;DHT22;2719;53.624;9.786;2022-12-29T00:17:59;8.70;99.90
5392;DHT22;2719;53.624;9.786;2022-12-29T00:20:25;8.70;99.90
5392;DHT22;2719;53.624;9.786;2022-12-29T00:23:08;8.70;99.90
5392;DHT22;2719;53.624;9.786;2022-12-29T00:25:52;8.70;99.90
5392;DHT22;2719;53.624;9.786;2022-12-29T00:28:36;8.70;99.90
5392;DHT22;2719;53.624;9.786;2022-12-29T00:31:20;8.70;99.90
5392;DHT22;2719;53.624;9.786;2022-12-29T00:34:08;8.80;99.90
5392;DHT22;2719;53.624;9.786;2022-12-29T00:36:53;8.80;99.90
5392;DHT22;2719;53.624;9.786;2022-12-29T00:39:19;8.80;99.90
5392;DHT22;2719;53.624;9.786;2022-12-29T00:42:04;8.80;99.90
5392;DHT22;2719;53.624;9.786;2022-12-29T00:44:48;8.90;99.90
5392;DHT22;2719;53.624;9.786;2022-12-29T00:47:15;8.90;99.90
5392;DHT22;2719;53.624;9.786;2022-12-29T00:49:43;8.90;99.90
5392;DHT22;2719;53.624;9.786;2022-12-29T00:52:10;8.90;99.90
5392;DHT22;2719;53.624;9.786;2022-12-29T00:54:38;9.00;99.90
5392;DHT22;2719;53.624;9.786;2022-12-29T00:57:06;9.00;99.90
5392;DHT22;2719;53.624;9.786;2022-12-29T00:59:34;9.00;99.90
5392;DHT22;2719;53.624;9.786;2022-12-29T01:02:01;9.00;99.90
5392;DHT22;2719;53.624;9.786;2022-12-29T01:04:27;9.10;99.90
5392;DHT22;2719;53.624;9.786;2022-12-29T01:06:55;9.10;99.90
5392;DHT22;2719;53.624;9.786;2022-12-29T01:09:22;9.10;99.90
5392;DHT22;2719;53.624;9.786;2022-12-29T01:12:08;9.00;99.90
5392;DHT22;2719;53.624;9.786;2022-12-29T01:14:35;9.10;99.90
5392;DHT22;2719;53.624;9.786;2022-12-29T01:17:03;9.10;99.90
5392;DHT22;2719;53.624;9.786;2022-12-29T01:19:30;9.10;99.90
5392;DHT22;2719;53.624;9.786;2022-12-29T01:21:58;9.10;99.90
5392;DHT22;2719;53.624;9.786;2022-12-29T01:24:25;9.10;99.90
5392;DHT22;2719;53.624;9.786;2022-12-29T01:26:52;9.20;99.90
5392;DHT22;2719;53.624;9.786;2022-12-29T01:29:19;9.20;99.90
5392;DHT22;2719;53.624;9.786;2022-12-29T01:31:46;9.20;99.90
5392;DHT22;2719;53.624;9.786;2022-12-29T01:34:14;9.20;99.90
5392;DHT22;2719;53.624;9.786;2022-12-29T01:36:41;9.20;99.90
5392;DHT22;2719;53.624;9.786;2022-12-29T01:39:09;9.20;99.90
5392;DHT22;2719;53.624;9.786;2022-12-29T01:41:36;9.30;99.90
5392;DHT22;2719;53.624;9.786;2022-12-29T01:46:47;9.20;99.90
5392;DHT22;2719;53.624;9.786;2022-12-29T01:49:18;9.20;99.90
5392;DHT22;2719;53.624;9.786;2022-12-29T01:51:50;9.20;99.90
5392;DHT22;2719;53.624;9.786;2022-12-29T01:54:22;9.20;99.90
5392;DHT22;2719;53.624;9.786;2022-12-29T01:56:50;9.20;99.90
5392;DHT22;2719;53.624;9.786;2022-12-29T01:59:20;9.20;99.90
5392;DHT22;2719;53.624;9.786;2022-12-29T02:01:49;9.20;99.90
5392;DHT22;2719;53.624;9.786;2022-12-29T02:04:16;9.20;99.90
5392;DHT22;2719;53.624;9.786;2022-12-29T02:06:47;9.20;99.90
5392;DHT22;2719;53.624;9.786;2022-12-29T02:09:17;9.20;99.90
5392;DHT22;2719;53.624;9.786;2022-12-29T02:11:44;9.30;99.90
5392;DHT22;2719;53.624;9.786;2022-12-29T02:14:13;9.30;99.90
5392;DHT22;2719;53.624;9.786;2022-12-29T02:16:51;9.30;99.90
5392;DHT22;2719;53.624;9.786;2022-12-29T02:19:48;9.30;99.90
5392;DHT22;2719;53.624;9.786;2022-12-29T02:22:27;9.30;99.90
5392;DHT22;2719;53.624;9.786;2022-12-29T02:25:14;9.30;99.90
5392;DHT22;2719;53.624;9.786;2022-12-29T02:27:58;9.30;99.90
5392;DHT22;2719;53.624;9.786;2022-12-29T02:30:42;9.30;99.90
5392;DHT22;2719;53.624;9.786;2022-12-29T02:33:30;9.30;99.90
5392;DHT22;2719;53.624;9.786;2022-12-29T02:36:08;9.30;99.90
5392;DHT22;2719;53.624;9.786;2022-12-29T02:38:48;9.30;99.90
5392;DHT22;2719;53.624;9.786;2022-12-29T02:41:21;9.40;99.90
5392;DHT22;2719;53.624;9.786;2022-12-29T02:43:53;9.30;99.90
5392;DHT22;2719;53.624;9.786;2022-12-29T02:46:26;9.40;99.90
5392;DHT22;2719;53.624;9.786;2022-12-29T02:48:59;9.50;99.90
5392;DHT22;2719;53.624;9.786;2022-12-29T02:51:33;9.40;99.90
5392;DHT22;2719;53.624;9.786;2022-12-29T02:54:01;9.50;99.90
5392;DHT22;2719;53.624;9.786;2022-12-29T02:56:45;9.50;99.90
5392;DHT22;2719;53.624;9.786;2022-12-29T02:59:12;9.50;99.90
5392;DHT22;2719;53.624;9.786;2022-12-29T03:01:51;9.50;99.90
5392;DHT22;2719;53.624;9.786;2022-12-29T03:04:39;9.50;99.90
5392;DHT22;2719;53.624;9.786;2022-12-29T03:07:17;9.60;99.90
5392;DHT22;2719;53.624;9.786;2022-12-29T03:09:51;9.60;99.90
5392;DHT22;2719;53.624;9.786;2022-12-29T03:12:25;9.60;99.90
5392;DHT22;2719;53.624;9.786;2022-12-29T03:15:18;9.60;99.90
5392;DHT22;2719;53.624;9.786;2022-12-29T03:18:10;9.70;99.90
5392;DHT22;2719;53.624;9.786;2022-12-29T03:20:44;9.70;99.90
5392;DHT22;2719;53.624;9.786;2022-12-29T03:23:16;9.70;99.90
5392;DHT22;2719;53.624;9.786;2022-12-29T03:25:47;9.70;99.90
5392;DHT22;2719;53.624;9.786;2022-12-29T03:28:20;9.70;99.90
5392;DHT22;2719;53.624;9.786;2022-12-29T03:30:48;9.70;99.90
5392;DHT22;2719;53.624;9.786;2022-12-29T03:33:21;9.70;99.90
5392;DHT22;2719;53.624;9.786;2022-12-29T03:35:51;9.70;99.90
5392;DHT22;2719;53.624;9.786;2022-12-29T03:38:24;9.80;99.90
5392;DHT22;2719;53.624;9.786;2022-12-29T03:40:54;9.70;99.90
5392;DHT22;2719;53.624;9.786;2022-12-29T03:43:22;9.80;99.90
5392;DHT22;2719;53.624;9.786;2022-12-29T03:45:49;9.80;99.90
5392;DHT22;2719;53.624;9.786;2022-12-29T03:48:17;9.80;99.90
5392;DHT22;2719;53.624;9.786;2022-12-29T03:50:43;9.80;99.90
5392;DHT22;2719;53.624;9.786;2022-12-29T03:53:10;9.80;99.90
5392;DHT22;2719;53.624;9.786;2022-12-29T03:55:37;9.80;99.90
5392;DHT22;2719;53.624;9.786;2022-12-29T03:58:04;9.90;99.90
5392;DHT22;2719;53.624;9.786;2022-12-29T04:00:31;9.90;99.90
5392;DHT22;2719;53.624;9.786;2022-12-29T04:02:57;9.90;99.90
5392;DHT22;2719;53.624;9.786;2022-12-29T04:05:25;9.90;99.90
5392;DHT22;2719;53.624;9.786;2022-12-29T04:07:52;9.90;99.90
5392;DHT22;2719;53.624;9.786;2022-12-29T04:10:18;10.00;99.90
5392;DHT22;2719;53.624;9.786;2022-12-29T04:12:45;10.00;99.90
5392;DHT22;2719;53.624;9.786;2022-12-29T04:15:12;10.00;99.90
5392;DHT22;2719;53.624;9.786;2022-12-29T04:17:39;10.00;99.90
5392;DHT22;2719;53.624;9.786;2022-12-29T04:20:06;10.00;99.90
5392;DHT22;2719;53.624;9.786;2022-12-29T04:22:59;10.00;99.90
5392;DHT22;2719;53.624;9.786;2022-12-29T04:25:25;10.00;99.90
5392;DHT22;2719;53.624;9.786;2022-12-29T04:27:52;10.00;99.90
5392;DHT22;2719;53.624;9.786;2022-12-29T04:30:19;10.00;99.90
5392;DHT22;2719;53.624;9.786;2022-12-29T04:32:46;10.10;99.90
5392;DHT22;2719;53.624;9.786;2022-12-29T04:35:13;10.10;99.90
5392;DHT22;2719;53.624;9.786;2022-12-29T04:37:40;10.10;99.90
5392;DHT22;2719;53.624;9.786;2022-12-29T04:40:10;10.10;99.90
5392;DHT22;2719;53.624;9.786;2022-12-29T04:42:37;10.10;99.90
5392;DHT22;2719;53.624;9.786;2022-12-29T04:45:05;10.10;99.90
5392;DHT22;2719;53.624;9.786;2022-12-29T04:47:32;10.20;99.90
5392;DHT22;2719;53.624;9.786;2022-12-29T04:50:00;10.20;99.90
5392;DHT22;2719;53.624;9.786;2022-12-29T04:52:26;10.20;99.90
5392;DHT22;2719;53.624;9.786;2022-12-29T04:54:53;10.20;99.90
5392;DHT22;2719;53.624;9.786;2022-12-29T04:57:22;10.20;99.90
5392;DHT22;2719;53.624;9.786;2022-12-29T04:59:48;10.20;99.90
5392;DHT22;2719;53.624;9.786;2022-12-29T05:02:15;10.20;99.90
5392;DHT22;2719;53.624;9.786;2022-12-29T05:04:42;10.20;99.90
5392;DHT22;2719;53.624;9.786;2022-12-29T05:07:09;10.20;99.90
5392;DHT22;2719;53.624;9.786;2022-12-29T05:09:35;10.20;99.90
5392;DHT22;2719;53.624;9.786;2022-12-29T05:12:02;10.20;99.90
5392;DHT22;2719;53.624;9.786;2022-12-29T05:14:30;10.20;99.90
5392;DHT22;2719;53.624;9.786;2022-12-29T05:16:57;10.10;99.90
5392;DHT22;2719;53.624;9.786;2022-12-29T05:19:23;10.10;99.90
5392;DHT22;2719;53.624;9.786;2022-12-29T05:21:50;10.10;99.90
5392;DHT22;2719;53.624;9.786;2022-12-29T05:24:17;10.10;99.90
5392;DHT22;2719;53.624;9.786;2022-12-29T05:26:43;10.20;99.90
5392;DHT22;2719;53.624;9.786;2022-12-29T05:29:10;10.20;99.90
5392;DHT22;2719;53.624;9.786;2022-12-29T05:31:38;10.20;99.90
5392;DHT22;2719;53.624;9.786;2022-12-29T05:34:05;10.20;99.90
5392;DHT22;2719;53.624;9.786;2022-12-29T05:36:32;10.20;99.90
5392;DHT22;2719;53.624;9.786;2022-12-29T05:38:58;10.20;99.90
5392;DHT22;2719;53.624;9.786;2022-12-29T05:41:25;10.20;99.90
5392;DHT22;2719;53.624;9.786;2022-12-29T05:43:51;10.20;99.90
5392;DHT22;2719;53.624;9.786;2022-12-29T05:46:18;10.20;99.90
5392;DHT22;2719;53.624;9.786;2022-12-29T05:48:46;10.20;99.90
5392;DHT22;2719;53.624;9.786;2022-12-29T05:51:13;10.30;99.90
5392;DHT22;2719;53.624;9.786;2022-12-29T05:53:39;10.30;99.90
5392;DHT22;2719;53.624;9.786;2022-12-29T05:56:06;10.30;99.90
5392;DHT22;2719;53.624;9.786;2022-12-29T05:58:33;10.30;99.90
5392;DHT22;2719;53.624;9.786;2022-12-29T06:01:00;10.30;99.90
5392;DHT22;2719;53.624;9.786;2022-12-29T06:03:26;10.30;99.90
5392;DHT22;2719;53.624;9.786;2022-12-29T06:05:54;10.30;99.90
5392;DHT22;2719;53.624;9.786;2022-12-29T06:08:21;10.30;99.90
5392;DHT22;2719;53.624;9.786;2022-12-29T06:10:48;10.40;99.90
5392;DHT22;2719;53.624;9.786;2022-12-29T06:13:14;10.40;99.90
5392;DHT22;2719;53.624;9.786;2022-12-29T06:15:41;10.40;99.90
5392;DHT22;2719;53.624;9.786;2022-12-29T06:18:08;10.40;99.90
5392;DHT22;2719;53.624;9.786;2022-12-29T06:20:35;10.40;99.90
5392;DHT22;2719;53.624;9.786;2022-12-29T06:23:03;10.40;99.90
5392;DHT22;2719;53.624;9.786;2022-12-29T06:25:30;10.40;99.90
5392;DHT22;2719;53.624;9.786;2022-12-29T06:27:57;10.40;99.90
5392;DHT22;2719;53.624;9.786;2022-12-29T06:30:24;10.40;99.90
5392;DHT22;2719;53.624;9.786;2022-12-29T06:32:51;10.40;99.90
5392;DHT22;2719;53.624;9.786;2022-12-29T06:35:18;10.40;99.90
5392;DHT22;2719;53.624;9.786;2022-12-29T06:37:45;10.40;99.90
5392;DHT22;2719;53.624;9.786;2022-12-29T06:40:14;10.40;99.90
5392;DHT22;2719;53.624;9.786;2022-12-29T06:42:40;10.40;99.90
5392;DHT22;2719;53.624;9.786;2022-12-29T06:45:07;10.40;99.90
5392;DHT22;2719;53.624;9.786;2022-12-29T06:47:35;10.40;99.90
5392;DHT22;2719;53.624;9.786;2022-12-29T06:50:02;10.40;99.90
5392;DHT22;2719;53.624;9.786;2022-12-29T06:52:28;10.40;99.90
5392;DHT22;2719;53.624;9.786;2022-12-29T06:54:55;10.50;99.90
5392;DHT22;2719;53.624;9.786;2022-12-29T06:57:23;10.50;99.90
5392;DHT22;2719;53.624;9.786;2022-12-29T06:59:52;10.50;99.90
5392;DHT22;2719;53.624;9.786;2022-12-29T07:02:20;10.40;99.90
5392;DHT22;2719;53.624;9.786;2022-12-29T07:04:47;10.40;99.90
5392;DHT22;2719;53.624;9.786;2022-12-29T07:07:14;10.40;99.90
5392;DHT22;2719;53.624;9.786;2022-12-29T07:09:41;10.40;99.90
5392;DHT22;2719;53.624;9.786;2022-12-29T07:12:08;10.40;99.90
5392;DHT22;2719;53.624;9.786;2022-12-29T07:14:35;10.40;99.90
5392;DHT22;2719;53.624;9.786;2022-12-29T07:17:03;10.40;99.90
5392;DHT22;2719;53.624;9.786;2022-12-29T07:19:30;10.30;99.90
5392;DHT22;2719;53.624;9.786;2022-12-29T07:21:57;10.30;99.90
5392;DHT22;2719;53.624;9.786;2022-12-29T07:24:23;10.30;99.90
5392;DHT22;2719;53.624;9.786;2022-12-29T07:26:51;10.30;99.90
5392;DHT22;2719;53.624;9.786;2022-12-29T07:29:17;10.40;99.90
5392;DHT22;2719;53.624;9.786;2022-12-29T07:31:45;10.40;99.90
5392;DHT22;2719;53.624;9.786;2022-12-29T07:34:12;10.30;99.90
5392;DHT22;2719;53.624;9.786;2022-12-29T07:36:39;10.40;99.90
5392;DHT22;2719;53.624;9.786;2022-12-29T07:39:06;10.40;99.90
5392;DHT22;2719;53.624;9.786;2022-12-29T07:41:32;10.40;99.90
5392;DHT22;2719;53.624;9.786;2022-12-29T07:44:00;10.40;99.90
5392;DHT22;2719;53.624;9.786;2022-12-29T07:46:27;10.40;99.90
5392;DHT22;2719;53.624;9.786;2022-12-29T07:48:55;10.40;99.90
5392;DHT22;2719;53.624;9.786;2022-12-29T07:51:21;10.40;99.90
5392;DHT22;2719;53.624;9.786;2022-12-29T07:53:48;10.40;99.90
5392;DHT22;2719;53.624;9.786;2022-12-29T07:56:15;10.40;99.90
5392;DHT22;2719;53.624;9.786;2022-12-29T07:58:42;10.40;99.90
5392;DHT22;2719;53.624;9.786;2022-12-29T08:01:08;10.40;99.90
5392;DHT22;2719;53.624;9.786;2022-12-29T08:03:35;10.40;99.90
5392;DHT22;2719;53.624;9.786;2022-12-29T08:06:05;10.40;99.90
5392;DHT22;2719;53.624;9.786;2022-12-29T08:08:31;10.50;99.90
5392;DHT22;2719;53.624;9.786;2022-12-29T08:10:58;10.40;99.90
5392;DHT22;2719;53.624;9.786;2022-12-29T08:13:24;10.40;99.90
5392;DHT22;2719;53.624;9.786;2022-12-29T08:15:51;10.40;99.90
5392;DHT22;2719;53.624;9.786;2022-12-29T08:18:18;10.40;99.90
5392;DHT22;2719;53.624;9.786;2022-12-29T08:20:44;10.40;99.90
5392;DHT22;2719;53.624;9.786;2022-12-29T08:23:12;10.40;99.90
5392;DHT22;2719;53.624;9.786;2022-12-29T08:25:39;10.30;99.90
5392;DHT22;2719;53.624;9.786;2022-12-29T08:28:05;10.30;99.90
5392;DHT22;2719;53.624;9.786;2022-12-29T08:30:32;10.30;99.90
5392;DHT22;2719;53.624;9.786;2022-12-29T08:32:59;10.30;99.90
5392;DHT22;2719;53.624;9.786;2022-12-29T08:35:25;10.30;99.90
5392;DHT22;2719;53.624;9.786;2022-12-29T08:37:52;10.40;99.90
5392;DHT22;2719;53.624;9.786;2022-12-29T08:40:20;10.40;99.90
5392;DHT22;2719;53.624;9.786;2022-12-29T08:42:46;10.40;99.90
5392;DHT22;2719;53.624;9.786;2022-12-29T08:45:13;10.40;99.90
5392;DHT22;2719;53.624;9.786;2022-12-29T08:47:40;10.40;99.90
5392;DHT22;2719;53.624;9.786;2022-12-29T08:50:07;10.40;99.90
5392;DHT22;2719;53.624;9.786;2022-12-29T08:52:34;10.40;99.90
5392;DHT22;2719;53.624;9.786;2022-12-29T08:55:00;10.40;99.90
5392;DHT22;2719;53.624;9.786;2022-12-29T08:57:28;10.40;99.90
5392;DHT22;2719;53.624;9.786;2022-12-29T08:59:55;10.30;99.90
5392;DHT22;2719;53.624;9.786;2022-12-29T09:02:22;10.40;99.90
5392;DHT22;2719;53.624;9.786;2022-12-29T09:04:48;10.40;99.90
5392;DHT22;2719;53.624;9.786;2022-12-29T09:07:15;10.40;99.90
5392;DHT22;2719;53.624;9.786;2022-12-29T09:09:42;10.40;99.90
5392;DHT22;2719;53.624;9.786;2022-12-29T09:12:08;10.40;99.90
5392;DHT22;2719;53.624;9.786;2022-12-29T09:14:36;10.40;99.90
5392;DHT22;2719;53.624;9.786;2022-12-29T09:17:03;10.40;99.90
5392;DHT22;2719;53.624;9.786;2022-12-29T09:19:47;10.40;99.90
5392;DHT22;2719;53.624;9.786;2022-12-29T09:22:14;10.40;99.90
5392;DHT22;2719;53.624;9.786;2022-12-29T09:24:40;10.40;99.90
5392;DHT22;2719;53.624;9.786;2022-12-29T09:27:07;10.40;99.90
5392;DHT22;2719;53.624;9.786;2022-12-29T09:29:35;10.50;99.90
5392;DHT22;2719;53.624;9.786;2022-12-29T09:32:02;10.50;99.90
5392;DHT22;2719;53.624;9.786;2022-12-29T09:34:28;10.50;99.90
5392;DHT22;2719;53.624;9.786;2022-12-29T09:36:55;10.50;99.90
5392;DHT22;2719;53.624;9.786;2022-12-29T09:39:23;10.60;99.90
5392;DHT22;2719;53.624;9.786;2022-12-29T09:41:58;10.60;99.90
5392;DHT22;2719;53.624;9.786;2022-12-29T09:44:35;10.60;99.90
5392;DHT22;2719;53.624;9.786;2022-12-29T09:47:09;10.60;99.90
5392;DHT22;2719;53.624;9.786;2022-12-29T09:49:42;10.60;99.90
5392;DHT22;2719;53.624;9.786;2022-12-29T09:52:14;10.60;99.90
5392;DHT22;2719;53.624;9.786;2022-12-29T09:54:47;10.60;99.90
5392;DHT22;2719;53.624;9.786;2022-12-29T09:57:17;10.60;99.90
5392;DHT22;2719;53.624;9.786;2022-12-29T09:59:49;10.60;99.90
5392;DHT22;2719;53.624;9.786;2022-12-29T10:02:31;10.50;99.90
5392;DHT22;2719;53.624;9.786;2022-12-29T10:04:59;10.50;99.90
5392;DHT22;2719;53.624;9.786;2022-12-29T10:07:34;10.50;99.90
5392;DHT22;2719;53.624;9.786;2022-12-29T10:10:14;10.50;99.90
5392;DHT22;2719;53.624;9.786;2022-12-29T10:12:53;10.60;99.90
5392;DHT22;2719;53.624;9.786;2022-12-29T10:15:34;10.60;99.90
5392;DHT22;2719;53.624;9.786;2022-12-29T10:18:18;10.60;99.90
5392;DHT22;2719;53.624;9.786;2022-12-29T10:20:51;10.60;99.90
5392;DHT22;2719;53.624;9.786;2022-12-29T10:23:27;10.60;99.90
5392;DHT22;2719;53.624;9.786;2022-12-29T10:25:56;10.70;99.90
5392;DHT22;2719;53.624;9.786;2022-12-29T10:28:34;10.70;99.90
5392;DHT22;2719;53.624;9.786;2022-12-29T10:31:05;10.70;99.90
5392;DHT22;2719;53.624;9.786;2022-12-29T10:33:37;10.60;99.90
5392;DHT22;2719;53.624;9.786;2022-12-29T10:36:14;10.60;99.90
5392;DHT22;2719;53.624;9.786;2022-12-29T10:38:48;10.60;99.90
5392;DHT22;2719;53.624;9.786;2022-12-29T10:41:20;10.70;99.90
5392;DHT22;2719;53.624;9.786;2022-12-29T10:43:48;10.60;99.90
5392;DHT22;2719;53.624;9.786;2022-12-29T10:46:19;10.60;99.90
5392;DHT22;2719;53.624;9.786;2022-12-29T10:48:47;10.70;99.90
5392;DHT22;2719;53.624;9.786;2022-12-29T10:51:20;10.70;99.90
5392;DHT22;2719;53.624;9.786;2022-12-29T10:53:50;10.70;99.90
5392;DHT22;2719;53.624;9.786;2022-12-29T10:56:27;10.80;99.90
5392;DHT22;2719;53.624;9.786;2022-12-29T10:58:58;10.90;99.90
5392;DHT22;2719;53.624;9.786;2022-12-29T11:01:32;11.00;99.90
5392;DHT22;2719;53.624;9.786;2022-12-29T11:04:07;11.00;99.90
5392;DHT22;2719;53.624;9.786;2022-12-29T11:06:43;10.90;99.90
5392;DHT22;2719;53.624;9.786;2022-12-29T11:09:14;10.90;99.90
5392;DHT22;2719;53.624;9.786;2022-12-29T11:11:43;10.90;99.90
5392;DHT22;2719;53.624;9.786;2022-12-29T11:14:13;10.80;99.90
5392;DHT22;2719;53.624;9.786;2022-12-29T11:16:41;10.80;99.90
5392;DHT22;2719;53.624;9.786;2022-12-29T11:19:21;10.90;99.90
5392;DHT22;2719;53.624;9.786;2022-12-29T11:21:49;10.90;99.90
5392;DHT22;2719;53.624;9.786;2022-12-29T11:24:22;10.80;99.90
5392;DHT22;2719;53.624;9.786;2022-12-29T11:26:50;10.80;99.90
5392;DHT22;2719;53.624;9.786;2022-12-29T11:29:24;10.80;99.90
5392;DHT22;2719;53.624;9.786;2022-12-29T11:31:52;10.80;99.90
5392;DHT22;2719;53.624;9.786;2022-12-29T11:34:22;10.80;99.90
5392;DHT22;2719;53.624;9.786;2022-12-29T11:36:52;10.80;99.90
5392;DHT22;2719;53.624;9.786;2022-12-29T11:39:38;10.90;99.90
5392;DHT22;2719;53.624;9.786;2022-12-29T11:42:14;11.00;99.90
5392;DHT22;2719;53.624;9.786;2022-12-29T11:44:43;11.00;99.90
5392;DHT22;2719;53.624;9.786;2022-12-29T11:47:22;10.90;99.90
5392;DHT22;2719;53.624;9.786;2022-12-29T11:49:52;10.90;99.90
5392;DHT22;2719;53.624;9.786;2022-12-29T11:52:27;10.90;99.90
5392;DHT22;2719;53.624;9.786;2022-12-29T11:54:54;11.00;99.90
5392;DHT22;2719;53.624;9.786;2022-12-29T11:57:22;10.90;99.90
5392;DHT22;2719;53.624;9.786;2022-12-29T11:59:51;10.90;99.90
5392;DHT22;2719;53.624;9.786;2022-12-29T12:02:39;10.90;99.90
5392;DHT22;2719;53.624;9.786;2022-12-29T12:05:20;10.80;99.90
5392;DHT22;2719;53.624;9.786;2022-12-29T12:07:50;10.80;99.90
5392;DHT22;2719;53.624;9.786;2022-12-29T12:10:22;10.70;99.90
5392;DHT22;2719;53.624;9.786;2022-12-29T12:12:56;10.70;99.90
5392;DHT22;2719;53.624;9.786;2022-12-29T12:15:25;10.60;99.90
5392;DHT22;2719;53.624;9.786;2022-12-29T12:17:55;10.60;99.90
5392;DHT22;2719;53.624;9.786;2022-12-29T12:20:36;10.70;99.90
5392;DHT22;2719;53.624;9.786;2022-12-29T12:23:12;10.50;99.90
5392;DHT22;2719;53.624;9.786;2022-12-29T12:25:51;10.50;99.90
5392;DHT22;2719;53.624;9.786;2022-12-29T12:28:24;10.50;99.90
5392;DHT22;2719;53.624;9.786;2022-12-29T12:30:55;10.50;99.90
5392;DHT22;2719;53.624;9.786;2022-12-29T12:33:27;10.50;99.90
5392;DHT22;2719;53.624;9.786;2022-12-29T12:36:09;10.50;99.90
5392;DHT22;2719;53.624;9.786;2022-12-29T12:38:46;10.50;99.90
5392;DHT22;2719;53.624;9.786;2022-12-29T12:41:21;10.50;99.90
5392;DHT22;2719;53.624;9.786;2022-12-29T12:43:58;10.50;99.90
5392;DHT22;2719;53.624;9.786;2022-12-29T12:46:42;10.50;99.90
5392;DHT22;2719;53.624;9.786;2022-12-29T12:49:35;10.50;99.90
5392;DHT22;2719;53.624;9.786;2022-12-29T12:52:11;10.50;99.90
5392;DHT22;2719;53.624;9.786;2022-12-29T12:54:55;10.50;99.90
5392;DHT22;2719;53.624;9.786;2022-12-29T12:57:40;10.50;99.90
5392;DHT22;2719;53.624;9.786;2022-12-29T13:00:10;10.50;99.90
5392;DHT22;2719;53.624;9.786;2022-12-29T13:02:48;10.50;99.90
5392;DHT22;2719;53.624;9.786;2022-12-29T13:05:47;10.50;99.90
5392;DHT22;2719;53.624;9.786;2022-12-29T13:08:30;10.50;99.90
5392;DHT22;2719;53.624;9.786;2022-12-29T13:11:07;10.50;99.90
5392;DHT22;2719;53.624;9.786;2022-12-29T13:14:15;10.50;99.90
5392;DHT22;2719;53.624;9.786;2022-12-29T13:16:51;10.50;99.90
5392;DHT22;2719;53.624;9.786;2022-12-29T13:19:25;10.50;99.90
5392;DHT22;2719;53.624;9.786;2022-12-29T13:22:01;10.50;99.90
5392;DHT22;2719;53.624;9.786;2022-12-29T13:24:36;10.50;99.90
5392;DHT22;2719;53.624;9.786;2022-12-29T13:27:12;10.40;99.90
5392;DHT22;2719;53.624;9.786;2022-12-29T13:29:46;10.40;99.90
5392;DHT22;2719;53.624;9.786;2022-12-29T13:32:22;10.30;99.90
5392;DHT22;2719;53.624;9.786;2022-12-29T13:35:00;10.30;99.90
5392;DHT22;2719;53.624;9.786;2022-12-29T13:37:31;10.20;99.90
5392;DHT22;2719;53.624;9.786;2022-12-29T13:40:03;10.20;99.90
5392;DHT22;2719;53.624;9.786;2022-12-29T13:42:32;10.10;99.90
5392;DHT22;2719;53.624;9.786;2022-12-29T13:45:03;10.10;99.90
5392;DHT22;2719;53.624;9.786;2022-12-29T13:47:36;10.00;99.90
5392;DHT22;2719;53.624;9.786;2022-12-29T13:50:08;9.90;99.90
5392;DHT22;2719;53.624;9.786;2022-12-29T13:52:44;9.80;99.90
5392;DHT22;2719;53.624;9.786;2022-12-29T13:55:23;9.70;99.90
5392;DHT22;2719;53.624;9.786;2022-12-29T13:58:00;9.50;99.90
5392;DHT22;2719;53.624;9.786;2022-12-29T14:00:33;9.10;99.90
5392;DHT22;2719;53.624;9.786;2022-12-29T14:03:20;9.00;99.90
5392;DHT22;2719;53.624;9.786;2022-12-29T14:06:04;8.90;99.90
5392;DHT22;2719;53.624;9.786;2022-12-29T14:08:36;8.70;99.90
5392;DHT22;2719;53.624;9.786;2022-12-29T14:11:08;8.50;99.90
5392;DHT22;2719;53.624;9.786;2022-12-29T14:13:38;8.60;99.90
5392;DHT22;2719;53.624;9.786;2022-12-29T14:16:07;8.60;99.90
5392;DHT22;2719;53.624;9.786;2022-12-29T14:18:42;8.60;99.90
5392;DHT22;2719;53.624;9.786;2022-12-29T14:21:18;8.50;99.90
5392;DHT22;2719;53.624;9.786;2022-12-29T14:23:48;8.60;99.90
5392;DHT22;2719;53.624;9.786;2022-12-29T14:26:18;8.60;99.90
5392;DHT22;2719;53.624;9.786;2022-12-29T14:29:15;8.60;99.90
5392;DHT22;2719;53.624;9.786;2022-12-29T14:31:42;8.60;99.90
5392;DHT22;2719;53.624;9.786;2022-12-29T14:34:28;8.60;99.90
5392;DHT22;2719;53.624;9.786;2022-12-29T14:36:56;8.70;99.90
5392;DHT22;2719;53.624;9.786;2022-12-29T14:39:36;8.70;99.90
5392;DHT22;2719;53.624;9.786;2022-12-29T14:42:10;8.70;99.90
5392;DHT22;2719;53.624;9.786;2022-12-29T14:44:46;8.80;99.90
5392;DHT22;2719;53.624;9.786;2022-12-29T14:47:19;8.70;99.90
5392;DHT22;2719;53.624;9.786;2022-12-29T14:49:47;8.70;99.90
5392;DHT22;2719;53.624;9.786;2022-12-29T14:52:17;8.60;99.90
5392;DHT22;2719;53.624;9.786;2022-12-29T14:54:47;8.70;99.90
5392;DHT22;2719;53.624;9.786;2022-12-29T14:57:25;8.70;99.90
5392;DHT22;2719;53.624;9.786;2022-12-29T14:59:57;8.70;99.90
5392;DHT22;2719;53.624;9.786;2022-12-29T15:02:33;8.70;99.90
5392;DHT22;2719;53.624;9.786;2022-12-29T15:05:02;8.70;99.90
5392;DHT22;2719;53.624;9.786;2022-12-29T15:07:29;8.70;99.90
5392;DHT22;2719;53.624;9.786;2022-12-29T15:10:03;8.70;99.90
5392;DHT22;2719;53.624;9.786;2022-12-29T15:12:37;8.80;99.90
5392;DHT22;2719;53.624;9.786;2022-12-29T15:15:19;8.90;99.90
5392;DHT22;2719;53.624;9.786;2022-12-29T15:17:46;8.80;99.90
5392;DHT22;2719;53.624;9.786;2022-12-29T15:20:25;8.80;99.90
5392;DHT22;2719;53.624;9.786;2022-12-29T15:22:55;8.90;99.90
5392;DHT22;2719;53.624;9.786;2022-12-29T15:25:22;8.80;99.90
5392;DHT22;2719;53.624;9.786;2022-12-29T15:27:52;8.80;99.90
5392;DHT22;2719;53.624;9.786;2022-12-29T15:30:20;8.80;99.90
5392;DHT22;2719;53.624;9.786;2022-12-29T15:32:48;8.80;99.90
5392;DHT22;2719;53.624;9.786;2022-12-29T15:35:23;8.80;99.90
5392;DHT22;2719;53.624;9.786;2022-12-29T15:37:50;8.90;99.90
5392;DHT22;2719;53.624;9.786;2022-12-29T15:40:23;8.70;99.90
5392;DHT22;2719;53.624;9.786;2022-12-29T15:43:03;8.80;99.90
5392;DHT22;2719;53.624;9.786;2022-12-29T15:45:33;8.80;99.90
5392;DHT22;2719;53.624;9.786;2022-12-29T15:48:01;8.80;99.90
5392;DHT22;2719;53.624;9.786;2022-12-29T15:50:30;8.80;99.90
5392;DHT22;2719;53.624;9.786;2022-12-29T15:52:57;8.90;99.90
5392;DHT22;2719;53.624;9.786;2022-12-29T15:55:28;8.80;99.90
5392;DHT22;2719;53.624;9.786;2022-12-29T15:57:59;8.80;99.90
5392;DHT22;2719;53.624;9.786;2022-12-29T16:00:28;8.80;99.90
5392;DHT22;2719;53.624;9.786;2022-12-29T16:02:58;8.80;99.90
5392;DHT22;2719;53.624;9.786;2022-12-29T16:05:32;8.80;99.90
5392;DHT22;2719;53.624;9.786;2022-12-29T16:08:00;8.80;99.90
5392;DHT22;2719;53.624;9.786;2022-12-29T16:10:31;8.80;99.90
5392;DHT22;2719;53.624;9.786;2022-12-29T16:13:16;8.70;99.90
5392;DHT22;2719;53.624;9.786;2022-12-29T16:15:45;8.70;99.90
5392;DHT22;2719;53.624;9.786;2022-12-29T16:18:22;8.70;99.90
5392;DHT22;2719;53.624;9.786;2022-12-29T16:20:50;8.80;99.90
5392;DHT22;2719;53.624;9.786;2022-12-29T16:23:20;8.70;99.90
5392;DHT22;2719;53.624;9.786;2022-12-29T16:25:47;8.70;99.90
5392;DHT22;2719;53.624;9.786;2022-12-29T16:28:18;8.70;99.90
5392;DHT22;2719;53.624;9.786;2022-12-29T16:30:46;8.80;99.90
5392;DHT22;2719;53.624;9.786;2022-12-29T16:33:32;8.70;99.90
5392;DHT22;2719;53.624;9.786;2022-12-29T16:36:01;8.80;99.90